Time;durP1;ratioP1;P1;durP2;ratioP2;P2;SDS_P1;SDS_P2;PMS_P1;PMS_P2;Temp;Humidity;BMP_temperature;BMP_pressure;BME280_temperature;BME280_humidity;BME280_pressure;Samples;Min_cycle;Max_cycle;Signal;HPM_P1;HPM_P2
2022/07/11 00:01:36;;;;;;;5.35;4.80;;;27.40;49.40;;;;;;4680855;57;21044;-30
2022/07/11 00:06:37;;;;;;;5.43;4.90;;;27.30;49.50;;;;;;4561161;61;21116;-29
2022/07/11 00:11:38;;;;;;;5.60;5.10;;;27.30;49.50;;;;;;4567516;57;21032;-33
2022/07/11 00:16:38;;;;;;;5.55;4.78;;;27.30;49.50;;;;;;4686055;57;21036;-30
2022/07/11 00:21:39;;;;;;;5.25;4.75;;;27.40;49.50;;;;;;4927285;57;21510;-28
2022/07/11 00:26:40;;;;;;;5.30;4.30;;;27.30;49.40;;;;;;4599786;57;21569;-29
2022/07/11 00:31:41;;;;;;;6.05;4.82;;;27.30;49.40;;;;;;4760032;57;21507;-30
2022/07/11 00:36:42;;;;;;;4.75;4.32;;;27.30;49.60;;;;;;4561520;61;21040;-30
2022/07/11 00:41:43;;;;;;;5.72;4.57;;;27.30;49.60;;;;;;4577189;57;21081;-31
2022/07/11 00:46:44;;;;;;;4.75;4.22;;;27.30;49.60;;;;;;4604720;57;21060;-31
2022/07/11 00:51:45;;;;;;;4.80;4.30;;;27.30;49.70;;;;;;4648753;57;21040;-29
2022/07/11 00:56:46;;;;;;;5.68;4.62;;;27.30;49.70;;;;;;5007970;57;21028;-34
2022/07/11 01:01:46;;;;;;;5.37;4.22;;;27.30;49.60;;;;;;4690601;57;21036;-30
2022/07/11 01:06:48;;;;;;;5.43;4.93;;;27.30;49.60;;;;;;4635501;57;21037;-32
2022/07/11 01:11:48;;;;;;;4.78;4.30;;;27.30;49.60;;;;;;4615648;57;21024;-32
2022/07/11 01:16:51;;;;;;;4.65;4.25;;;27.30;49.70;;;;;;4656741;57;21036;-33
2022/07/11 01:21:58;;;;;;;5.00;4.40;;;27.30;50.40;;;;;;4750807;57;21531;-34
2022/07/11 01:26:59;;;;;;;4.95;4.50;;;27.30;49.70;;;;;;4757688;57;21534;-30
2022/07/11 01:32:00;;;;;;;4.57;4.18;;;27.30;49.80;;;;;;4584575;57;21088;-30
2022/07/11 01:37:01;;;;;;;5.05;4.03;;;27.30;49.80;;;;;;4955008;57;21095;-31
2022/07/11 01:42:02;;;;;;;4.70;4.28;;;27.30;49.80;;;;;;5008110;57;21012;-31
2022/07/11 01:47:03;;;;;;;4.45;4.05;;;27.30;49.80;;;;;;4710326;57;21064;-32
2022/07/11 01:52:04;;;;;;;5.55;4.25;;;27.30;49.90;;;;;;4620721;57;21052;-31
2022/07/11 01:57:05;;;;;;;4.50;4.00;;;27.30;49.90;;;;;;4698924;57;20997;-30
2022/07/11 02:02:06;;;;;;;4.97;4.40;;;27.30;49.90;;;;;;4855238;57;21140;-33
2022/07/11 02:07:07;;;;;;;4.93;4.20;;;27.30;49.90;;;;;;4561427;61;21084;-34
2022/07/11 02:12:08;;;;;;;4.80;4.03;;;27.30;50.60;;;;;;5008650;57;21052;-30
2022/07/11 02:17:09;;;;;;;5.20;4.03;;;27.30;50.00;;;;;;4761250;57;21093;-34
2022/07/11 02:22:11;;;;;;;4.57;4.05;;;27.30;50.00;;;;;;4685143;57;21160;-31
2022/07/11 02:27:12;;;;;;;5.65;4.22;;;27.30;50.00;;;;;;4599373;57;21523;-28
2022/07/11 02:32:12;;;;;;;4.87;3.83;;;27.30;50.10;;;;;;4622234;57;21052;-32
2022/07/11 02:37:13;;;;;;;4.87;4.25;;;27.30;50.10;;;;;;4770122;57;21108;-32
2022/07/11 02:42:14;;;;;;;4.78;4.25;;;27.20;50.00;;;;;;4876073;57;21032;-30
2022/07/11 02:47:15;;;;;;;4.40;4.00;;;27.30;50.20;;;;;;4707526;57;21048;-32
2022/07/11 02:52:16;;;;;;;4.32;3.92;;;27.20;50.00;;;;;;4561620;61;21033;-31
2022/07/11 02:57:16;;;;;;;4.60;4.05;;;27.20;50.00;;;;;;4561396;61;21534;-32
2022/07/11 03:02:17;;;;;;;5.30;4.60;;;27.30;50.10;;;;;;4703254;57;21040;-32
2022/07/11 03:07:18;;;;;;;5.20;4.10;;;27.30;50.70;;;;;;4670770;57;21081;-34
2022/07/11 03:12:19;;;;;;;5.25;4.37;;;27.20;50.10;;;;;;4597666;57;21557;-32
2022/07/11 03:17:20;;;;;;;4.95;4.10;;;27.20;50.10;;;;;;4561624;61;21534;-32
2022/07/11 03:22:23;;;;;;;6.03;4.40;;;27.20;50.10;;;;;;4561649;61;21040;-30
2022/07/11 03:27:24;;;;;;;4.95;4.20;;;27.30;50.20;;;;;;4807642;57;21550;-30
2022/07/11 03:32:25;;;;;;;6.95;4.40;;;27.30;50.20;;;;;;4561516;59;21558;-32
2022/07/11 03:37:26;;;;;;;6.07;4.62;;;27.30;50.30;;;;;;4661730;57;21093;-32
2022/07/11 03:42:27;;;;;;;6.18;4.55;;;27.30;50.10;;;;;;4561587;61;21037;-31
2022/07/11 03:47:28;;;;;;;6.90;4.40;;;27.20;50.10;;;;;;4715108;57;21053;-29
2022/07/11 03:52:28;;;;;;;6.30;4.60;;;27.20;50.00;;;;;;4613226;57;21024;-29
2022/07/11 03:57:29;;;;;;;6.05;4.78;;;27.20;50.00;;;;;;4746175;57;21642;-29
2022/07/11 04:02:30;;;;;;;6.70;4.60;;;27.20;50.00;;;;;;4655298;57;21574;-30
2022/07/11 04:07:31;;;;;;;7.05;5.00;;;27.20;49.90;;;;;;4560971;61;21056;-30
2022/07/11 04:12:32;;;;;;;7.15;4.70;;;27.20;49.90;;;;;;4561274;61;21100;-29
2022/07/11 04:17:33;;;;;;;7.55;4.97;;;27.20;49.80;;;;;;4699123;57;21100;-30
2022/07/11 04:22:33;;;;;;;6.50;4.65;;;27.20;49.90;;;;;;4561516;61;21052;-31
2022/07/11 04:27:34;;;;;;;7.05;5.07;;;27.20;49.80;;;;;;4814503;57;21073;-31
2022/07/11 04:32:35;;;;;;;7.82;5.12;;;27.20;49.80;;;;;;5007970;57;21525;-29
2022/07/11 04:37:36;;;;;;;8.40;5.37;;;27.20;49.80;;;;;;4689975;57;21506;-32
2022/07/11 04:42:37;;;;;;;7.28;5.05;;;27.20;49.70;;;;;;4608614;57;21096;-33
2022/07/11 04:47:38;;;;;;;9.60;5.75;;;27.20;49.70;;;;;;4584086;57;21056;-32
2022/07/11 04:52:41;;;;;;;8.00;5.60;;;27.20;49.60;;;;;;4627341;57;21108;-35
2022/07/11 04:57:41;;;;;;;7.28;4.97;;;27.20;49.60;;;;;;4858331;57;21041;-31
2022/07/11 05:02:43;;;;;;;6.40;4.87;;;27.20;49.50;;;;;;4647852;57;21016;-33
2022/07/11 05:07:44;;;;;;;7.28;5.32;;;27.20;49.50;;;;;;4683155;57;21657;-31
2022/07/11 05:12:44;;;;;;;8.23;5.60;;;27.10;49.50;;;;;;4865875;57;21033;-31
2022/07/11 05:17:45;;;;;;;6.82;5.18;;;27.20;49.40;;;;;;4561963;61;21511;-30
2022/07/11 05:22:46;;;;;;;7.40;5.37;;;27.20;49.50;;;;;;4691377;57;21021;-31
2022/07/11 05:27:47;;;;;;;8.40;5.60;;;27.20;49.40;;;;;;4657050;57;21130;-31
2022/07/11 05:32:48;;;;;;;6.55;5.00;;;27.10;49.30;;;;;;4618353;57;21535;-34
2022/07/11 05:37:49;;;;;;;7.35;5.20;;;27.10;49.30;;;;;;4629041;57;21096;-32
2022/07/11 05:42:49;;;;;;;7.55;5.15;;;27.10;49.30;;;;;;4596896;57;21047;-27
2022/07/11 05:47:50;;;;;;;8.65;5.32;;;27.10;49.30;;;;;;4595135;57;21057;-30
2022/07/11 05:52:51;;;;;;;7.37;4.87;;;27.10;49.30;;;;;;4561378;61;21036;-30
2022/07/11 05:57:52;;;;;;;8.25;5.68;;;27.10;49.00;;;;;;4623115;57;21038;-28
2022/07/11 06:02:52;;;;;;;8.55;5.70;;;27.10;49.00;;;;;;4561837;61;21491;-29
2022/07/11 06:13:13;;;;;;;8.82;5.28;;;27.10;48.70;;;;;;4561266;57;21103;-29
2022/07/11 06:18:13;;;;;;;6.32;4.90;;;27.10;48.70;;;;;;4784400;57;21108;-29
2022/07/11 06:23:14;;;;;;;7.37;5.28;;;27.10;48.70;;;;;;4561560;61;21029;-30
2022/07/11 06:28:15;;;;;;;8.40;5.65;;;27.10;48.50;;;;;;4622377;57;21105;-30
2022/07/11 06:33:17;;;;;;;8.10;5.30;;;27.10;48.40;;;;;;4561424;61;21505;-29
2022/07/11 06:38:18;;;;;;;9.18;5.18;;;27.10;48.40;;;;;;4658754;57;21344;-30
2022/07/11 06:43:19;;;;;;;6.85;5.10;;;27.10;48.20;;;;;;4561165;61;21083;-30
2022/07/11 06:48:21;;;;;;;7.32;5.07;;;27.10;48.10;;;;;;4561201;61;21052;-30
2022/07/11 06:53:21;;;;;;;7.25;5.35;;;27.10;48.10;;;;;;4578568;57;21566;-30
2022/07/11 06:58:31;;;;;;;7.43;5.10;;;27.10;48.10;;;;;;4658457;57;21045;-29
2022/07/11 07:03:34;;;;;;;8.90;5.35;;;27.10;48.00;;;;;;4580085;57;21049;-30
2022/07/11 07:08:34;;;;;;;8.10;5.47;;;27.10;47.90;;;;;;4596977;57;21052;-31
2022/07/11 07:13:36;;;;;;;7.75;5.72;;;27.10;47.70;;;;;;4561466;61;21494;-31
2022/07/11 07:18:38;;;;;;;7.12;5.70;;;27.10;47.80;;;;;;4561517;61;21040;-32
2022/07/11 07:23:39;;;;;;;7.50;5.40;;;27.10;47.70;;;;;;4561548;61;21547;-29
2022/07/11 07:28:40;;;;;;;7.97;5.62;;;27.00;47.50;;;;;;4582106;57;21207;-30
2022/07/11 07:33:41;;;;;;;8.57;6.07;;;27.00;47.50;;;;;;4654146;57;21081;-29
2022/07/11 07:38:46;;;;;;;7.80;5.80;;;27.10;47.40;;;;;;4699279;57;21077;-30
2022/07/11 07:43:48;;;;;;;7.35;5.82;;;27.00;47.40;;;;;;4644598;57;21493;-30
2022/07/11 07:48:49;;;;;;;8.93;6.20;;;27.10;47.40;;;;;;4560789;61;21611;-30
2022/07/11 07:53:50;;;;;;;9.73;6.45;;;27.00;47.30;;;;;;4561529;61;21040;-29
2022/07/11 07:58:51;;;;;;;10.52;5.80;;;27.10;47.20;;;;;;4561478;58;21029;-30
2022/07/11 08:03:53;;;;;;;7.40;5.82;;;27.00;47.00;;;;;;4578051;57;21025;-30
2022/07/11 08:08:53;;;;;;;8.32;6.10;;;27.00;47.10;;;;;;4619440;57;21072;-31
2022/07/11 08:13:54;;;;;;;7.45;5.85;;;27.00;46.80;;;;;;4629546;57;21483;-27
2022/07/11 08:18:56;;;;;;;10.30;7.22;;;27.00;46.90;;;;;;4706603;57;21033;-29
2022/07/11 08:23:57;;;;;;;8.82;6.40;;;27.00;46.60;;;;;;4584869;57;21017;-28
2022/07/11 08:28:58;;;;;;;8.77;6.87;;;27.00;46.80;;;;;;4649564;57;21060;-29
2022/07/11 08:33:59;;;;;;;9.35;7.32;;;27.00;46.70;;;;;;4686711;57;21036;-32
2022/07/11 08:38:59;;;;;;;8.57;6.37;;;27.00;46.70;;;;;;4561145;61;21079;-31
2022/07/11 08:44:01;;;;;;;8.38;6.95;;;27.10;46.80;;;;;;4669126;57;21021;-29
2022/07/11 08:49:03;;;;;;;8.75;6.70;;;27.00;46.70;;;;;;4680588;57;21590;-30
2022/07/11 08:54:04;;;;;;;8.75;6.87;;;27.00;46.60;;;;;;4562503;57;21586;-29
2022/07/11 08:59:06;;;;;;;8.32;6.75;;;27.00;46.60;;;;;;4575458;57;21037;-29
2022/07/11 09:04:08;;;;;;;8.02;6.28;;;27.00;46.60;;;;;;4627236;57;21029;-29
2022/07/11 09:09:09;;;;;;;8.18;6.20;;;27.00;46.40;;;;;;4560530;61;21571;-30
2022/07/11 09:14:27;;;;;;;8.52;6.70;;;27.00;46.50;;;;;;4580496;57;21072;-30
2022/07/11 09:19:30;;;;;;;9.02;7.25;;;27.00;46.00;;;;;;4672764;57;21578;-29
2022/07/11 09:30:16;;;;;;;11.50;7.65;;;27.00;46.30;;;;;;4559977;57;21132;-31
2022/07/11 09:35:17;;;;;;;10.45;7.82;;;27.00;46.20;;;;;;4603760;57;21551;-30
2022/07/11 09:40:18;;;;;;;9.45;8.10;;;27.00;46.20;;;;;;4591704;57;21096;-30
2022/07/11 09:45:21;;;;;;;13.15;8.70;;;27.10;46.30;;;;;;4596785;57;21091;-31
2022/07/11 09:50:27;;;;;;;9.60;7.78;;;27.10;46.30;;;;;;4608413;57;21104;-31
2022/07/11 09:55:32;;;;;;;11.00;8.65;;;27.00;46.20;;;;;;4589054;57;21069;-29
2022/07/11 10:00:35;;;;;;;11.38;9.07;;;27.00;46.00;;;;;;4636196;57;21645;-31
2022/07/11 10:05:36;;;;;;;10.75;8.50;;;27.10;46.10;;;;;;4569123;57;21510;-28
2022/07/11 10:10:37;;;;;;;10.55;8.70;;;27.10;46.20;;;;;;4563111;57;21072;-35
2022/07/11 10:15:42;;;;;;;10.77;8.70;;;27.00;45.90;;;;;;4598734;57;21170;-40
2022/07/11 10:22:31;;;;;;;10.38;8.68;;;27.00;45.90;;;;;;4673424;57;21518;-30
2022/07/11 10:34:39;;;;;;;10.48;8.80;;;27.10;45.90;;;;;;4590359;57;21125;-31
2022/07/11 10:39:57;;;;;;;10.50;8.50;;;27.00;45.90;;;;;;4720370;57;21498;-29
2022/07/11 10:44:58;;;;;;;10.23;8.68;;;27.10;45.80;;;;;;4610659;57;21073;-30
2022/07/11 10:50:03;;;;;;;11.00;9.07;;;27.00;45.80;;;;;;4607771;57;21598;-31
2022/07/11 10:56:44;;;;;;;11.30;8.65;;;27.00;45.70;;;;;;4561367;61;21561;-29
2022/07/11 11:02:10;;;;;;;9.48;8.10;;;27.10;45.80;;;;;;4587666;57;21028;-30
2022/07/11 11:07:35;;;;;;;10.70;8.70;;;27.00;45.60;;;;;;4608451;57;21546;-29
2022/07/11 11:13:20;;;;;;;11.32;8.43;;;27.00;45.70;;;;;;4810638;57;21527;-30
2022/07/11 11:18:42;;;;;;;10.85;8.43;;;27.00;45.60;;;;;;4561619;61;21585;-29
2022/07/11 11:24:07;;;;;;;11.02;8.40;;;27.00;45.70;;;;;;4606013;57;21029;-29
2022/07/11 11:29:09;;;;;;;12.93;8.70;;;27.00;45.50;;;;;;4627104;57;21631;-32
2022/07/11 11:34:10;;;;;;;11.88;9.15;;;27.00;45.30;;;;;;4561321;61;21100;-30
2022/07/11 11:39:20;;;;;;;13.13;9.07;;;27.00;45.40;;;;;;4893454;57;21592;-31
2022/07/11 11:44:21;;;;;;;10.75;8.40;;;27.10;45.40;;;;;;4682866;57;21137;-34
2022/07/11 11:49:22;;;;;;;12.37;8.98;;;27.00;45.40;;;;;;4684943;57;21112;-30
2022/07/11 11:54:25;;;;;;;10.90;8.77;;;27.00;45.30;;;;;;4561236;58;21096;-27
2022/07/11 11:59:31;;;;;;;11.05;8.63;;;27.10;45.40;;;;;;4587297;57;21586;-30
2022/07/11 12:04:33;;;;;;;12.80;8.32;;;27.00;45.40;;;;;;4602828;57;21142;-29
2022/07/11 12:09:46;;;;;;;12.18;8.80;;;27.00;45.40;;;;;;4560445;61;21119;-31
2022/07/11 12:14:47;;;;;;;10.48;8.60;;;27.00;45.40;;;;;;4561702;57;21046;-29
2022/07/11 12:19:47;;;;;;;12.18;9.05;;;27.00;45.20;;;;;;4639562;57;21041;-28
2022/07/11 12:24:50;;;;;;;10.45;8.55;;;27.00;45.20;;;;;;4627997;57;21511;-29
2022/07/11 12:29:51;;;;;;;11.45;8.95;;;27.00;45.30;;;;;;4559996;61;21049;-30
2022/07/11 12:34:52;;;;;;;9.38;8.35;;;27.00;45.30;;;;;;4622317;57;21568;-29
2022/07/11 12:40:00;;;;;;;12.10;8.98;;;27.00;45.40;;;;;;4561313;61;21045;-30
2022/07/11 12:45:09;;;;;;;12.63;8.57;;;27.00;45.30;;;;;;4847141;57;21559;-31
2022/07/11 12:50:21;;;;;;;13.70;8.68;;;27.00;45.20;;;;;;4603036;57;21611;-33
2022/07/11 12:55:28;;;;;;;10.77;8.57;;;27.00;45.40;;;;;;4658370;57;21001;-33
2022/07/11 13:00:31;;;;;;;9.85;8.60;;;27.00;45.20;;;;;;4606300;57;21478;-30
2022/07/11 13:05:48;;;;;;;12.32;9.13;;;27.00;45.10;;;;;;4577091;57;21559;-29
2022/07/11 13:10:53;;;;;;;11.12;9.35;;;27.00;45.20;;;;;;4632333;57;21080;-30
2022/07/11 13:15:54;;;;;;;11.18;9.30;;;27.00;45.20;;;;;;4590838;57;21599;-30
2022/07/11 13:20:55;;;;;;;11.20;9.07;;;27.00;45.10;;;;;;4561570;61;21547;-30
2022/07/11 13:25:56;;;;;;;10.55;8.98;;;27.00;45.20;;;;;;4680816;57;21538;-30
2022/07/11 13:30:57;;;;;;;10.55;8.95;;;27.00;45.20;;;;;;4659347;57;21511;-30
2022/07/11 13:35:58;;;;;;;11.20;9.60;;;27.00;45.60;;;;;;4634402;57;21025;-30
2022/07/11 13:40:59;;;;;;;11.80;9.88;;;27.00;45.10;;;;;;4643123;57;21118;-29
2022/07/11 13:46:00;;;;;;;12.93;9.20;;;27.00;45.10;;;;;;4749531;57;21109;-30
2022/07/11 13:51:01;;;;;;;12.15;9.43;;;27.00;45.10;;;;;;4561773;61;21084;-31
2022/07/11 13:56:02;;;;;;;12.32;9.88;;;27.00;45.00;;;;;;4623432;57;21170;-30
2022/07/11 14:01:03;;;;;;;11.12;9.48;;;27.00;45.30;;;;;;4660340;57;21036;-29
2022/07/11 14:06:04;;;;;;;12.43;9.52;;;27.00;45.00;;;;;;4618561;57;21156;-28
2022/07/11 14:11:05;;;;;;;12.05;9.60;;;27.00;45.10;;;;;;4573538;57;21080;-31
2022/07/11 14:16:09;;;;;;;12.70;9.73;;;27.00;44.90;;;;;;4586471;57;21509;-33
2022/07/11 14:21:09;;;;;;;10.40;9.23;;;27.00;45.00;;;;;;4571260;57;21181;-32
2022/07/11 14:26:10;;;;;;;11.43;9.48;;;27.00;44.90;;;;;;4579756;57;21178;-33
2022/07/11 14:31:11;;;;;;;11.50;9.07;;;27.00;44.90;;;;;;4761442;57;21554;-29
2022/07/11 14:36:12;;;;;;;11.50;8.93;;;27.00;44.80;;;;;;4711741;57;21073;-30
2022/07/11 14:41:15;;;;;;;10.75;9.15;;;27.00;44.90;;;;;;4561457;61;21518;-31
2022/07/11 14:46:16;;;;;;;11.05;9.30;;;27.00;44.90;;;;;;4561474;61;21574;-33
2022/07/11 14:51:17;;;;;;;11.85;9.30;;;27.00;44.90;;;;;;4561660;61;21040;-32
2022/07/11 14:56:18;;;;;;;11.27;8.73;;;27.00;44.80;;;;;;4683609;57;21051;-33
2022/07/11 15:01:19;;;;;;;11.43;8.57;;;27.00;44.80;;;;;;4561241;61;21503;-34
2022/07/11 15:06:21;;;;;;;10.13;8.65;;;27.00;44.80;;;;;;4715933;57;21036;-34
2022/07/11 15:16:45;;;;;;;11.30;8.98;;;27.00;44.70;;;;;;4577000;57;21595;-34
2022/07/11 15:21:46;;;;;;;10.32;9.23;;;27.00;44.60;;;;;;4614885;57;21776;-29
2022/07/11 15:26:47;;;;;;;10.80;8.85;;;27.00;44.80;;;;;;4561124;57;21109;-29
2022/07/11 15:31:47;;;;;;;10.57;8.63;;;27.00;44.70;;;;;;4561177;61;21025;-29
2022/07/11 15:36:49;;;;;;;11.95;8.90;;;27.00;44.80;;;;;;4768026;57;21506;-31
2022/07/11 15:41:49;;;;;;;10.75;8.77;;;27.00;44.70;;;;;;4640602;57;21486;-30
2022/07/11 15:46:50;;;;;;;11.20;9.13;;;27.00;44.70;;;;;;4761718;57;21032;-27
2022/07/11 15:51:51;;;;;;;11.57;9.07;;;27.00;44.70;;;;;;4597207;57;21036;-33
2022/07/11 15:56:52;;;;;;;10.65;9.13;;;27.00;44.50;;;;;;4702860;57;21048;-32
2022/07/11 16:01:53;;;;;;;11.35;9.00;;;27.00;44.70;;;;;;4631970;57;21044;-33
2022/07/11 16:06:53;;;;;;;10.18;8.75;;;27.00;44.70;;;;;;4664387;57;21048;-31
2022/07/11 16:11:54;;;;;;;10.52;8.70;;;27.00;44.70;;;;;;4604067;57;21085;-29
2022/07/11 16:16:56;;;;;;;9.85;8.30;;;27.00;44.50;;;;;;4703833;57;21060;-30
2022/07/11 16:21:57;;;;;;;12.07;8.70;;;27.00;44.70;;;;;;4571123;57;21029;-31
2022/07/11 16:26:58;;;;;;;9.93;8.88;;;27.00;44.60;;;;;;4686719;57;21558;-33
2022/07/11 16:31:59;;;;;;;10.73;8.40;;;27.00;44.50;;;;;;4613236;57;21085;-34
2022/07/11 16:37:00;;;;;;;10.25;8.65;;;27.00;44.60;;;;;;4610409;57;21092;-30
2022/07/11 16:47:20;;;;;;;11.55;7.85;;;27.00;44.10;;;;;;4560704;57;21112;-31
2022/07/11 16:52:21;;;;;;;9.90;8.45;;;27.00;44.60;;;;;;4590979;57;21074;-31
2022/07/11 16:57:22;;;;;;;10.27;7.70;;;27.00;44.60;;;;;;4612489;57;21510;-29
2022/07/11 17:02:23;;;;;;;8.70;7.55;;;26.90;44.50;;;;;;4650532;57;21016;-30
2022/07/11 17:07:25;;;;;;;10.90;8.27;;;27.00;44.60;;;;;;4809341;57;21148;-29
2022/07/11 17:12:25;;;;;;;10.48;8.38;;;27.00;44.60;;;;;;4603660;57;21037;-31
2022/07/11 17:17:27;;;;;;;8.20;7.40;;;27.00;44.60;;;;;;4630392;57;21046;-31
2022/07/11 17:22:28;;;;;;;9.23;7.40;;;27.00;44.50;;;;;;4573890;57;21500;-29
2022/07/11 17:27:29;;;;;;;9.30;7.30;;;27.00;44.60;;;;;;4593739;57;21077;-31
2022/07/11 17:32:30;;;;;;;9.07;7.68;;;26.90;44.60;;;;;;4610736;57;21020;-30
2022/07/11 17:37:31;;;;;;;10.30;7.55;;;26.90;44.50;;;;;;4605085;57;21093;-31
2022/07/11 17:42:33;;;;;;;9.63;7.43;;;27.00;44.50;;;;;;4585342;57;21048;-29
2022/07/11 17:47:37;;;;;;;10.07;7.78;;;26.90;44.50;;;;;;4603117;57;21518;-32
2022/07/11 17:52:39;;;;;;;11.55;7.75;;;27.00;44.70;;;;;;4614775;57;21506;-29
2022/07/11 17:57:40;;;;;;;10.80;8.20;;;26.90;44.60;;;;;;4618274;57;21041;-30
2022/07/11 18:02:45;;;;;;;10.10;8.18;;;27.00;44.60;;;;;;4728383;57;21624;-35
2022/07/11 18:07:47;;;;;;;15.07;8.82;;;26.90;44.50;;;;;;4598612;57;21096;-28
2022/07/11 18:12:48;;;;;;;10.23;8.43;;;26.90;44.60;;;;;;4635448;57;21515;-32
2022/07/11 18:17:50;;;;;;;10.32;8.68;;;26.90;44.70;;;;;;4592721;57;21160;-33
2022/07/11 18:22:51;;;;;;;10.85;9.23;;;26.90;44.60;;;;;;4579381;57;21036;-31
2022/07/11 18:27:52;;;;;;;12.93;10.07;;;27.00;44.70;;;;;;4666080;57;21543;-32
2022/07/11 18:32:53;;;;;;;10.15;8.75;;;26.90;44.60;;;;;;4605776;57;21112;-32
2022/07/11 18:37:54;;;;;;;12.52;10.10;;;27.00;44.80;;;;;;4604181;57;21623;-29
2022/07/11 18:42:55;;;;;;;11.45;9.60;;;26.90;44.80;;;;;;4577990;57;21025;-30
2022/07/11 18:47:56;;;;;;;11.88;9.88;;;27.00;44.80;;;;;;4573910;57;21527;-31
2022/07/11 18:52:57;;;;;;;11.30;9.65;;;26.90;44.90;;;;;;4625583;57;21100;-31
2022/07/11 18:57:58;;;;;;;12.45;9.70;;;26.90;44.80;;;;;;4822210;57;21567;-33
2022/07/11 19:02:59;;;;;;;12.75;9.98;;;26.90;44.80;;;;;;4596661;57;21080;-31
2022/07/11 19:08:00;;;;;;;11.55;9.77;;;26.90;45.00;;;;;;4772135;57;21048;-30
2022/07/11 19:13:01;;;;;;;12.77;9.52;;;27.00;45.10;;;;;;4722805;57;21511;-29
2022/07/11 19:18:02;;;;;;;12.20;9.77;;;26.90;44.90;;;;;;4598478;57;21005;-28
2022/07/11 19:23:03;;;;;;;12.18;10.10;;;26.90;45.00;;;;;;4561489;61;21037;-31
2022/07/11 19:28:04;;;;;;;11.55;10.02;;;27.00;45.10;;;;;;4592558;57;21119;-33
2022/07/11 19:33:05;;;;;;;13.70;10.05;;;26.90;45.00;;;;;;4873434;57;21475;-31
2022/07/11 19:38:06;;;;;;;14.27;11.23;;;26.90;44.80;;;;;;4575820;57;21037;-34
2022/07/11 19:43:07;;;;;;;15.57;11.82;;;26.90;45.00;;;;;;4805830;57;21058;-32
2022/07/11 19:48:08;;;;;;;15.85;11.70;;;26.90;45.00;;;;;;4621535;57;21040;-31
2022/07/11 19:53:12;;;;;;;17.17;12.88;;;26.90;45.00;;;;;;4656207;57;21602;-35
2022/07/11 19:58:13;;;;;;;16.73;12.65;;;26.90;44.90;;;;;;4611374;57;21589;-31
2022/07/11 20:03:14;;;;;;;18.30;12.63;;;26.90;45.00;;;;;;4561973;57;21148;-32
2022/07/11 20:08:15;;;;;;;18.73;12.30;;;26.90;45.10;;;;;;4676835;57;21553;-31
2022/07/11 20:13:17;;;;;;;17.23;12.43;;;26.90;45.60;;;;;;4600814;57;21085;-30
2022/07/11 20:18:18;;;;;;;16.95;12.18;;;26.90;45.10;;;;;;4628197;57;21551;-30
2022/07/11 20:23:19;;;;;;;16.83;12.02;;;26.90;44.80;;;;;;4595285;57;21024;-32
2022/07/11 20:28:23;;;;;;;15.32;11.75;;;26.90;45.10;;;;;;4560579;61;21076;-31
2022/07/11 20:33:24;;;;;;;16.92;11.20;;;26.90;45.00;;;;;;4747533;57;21574;-32
2022/07/11 20:38:24;;;;;;;16.45;11.65;;;26.90;45.30;;;;;;4722502;57;21044;-31
2022/07/11 20:43:27;;;;;;;15.18;11.12;;;26.90;45.10;;;;;;4621284;57;21052;-28
2022/07/11 20:48:28;;;;;;;14.00;11.48;;;26.90;45.00;;;;;;4615429;57;21579;-32
2022/07/11 20:53:29;;;;;;;12.60;10.00;;;26.90;45.20;;;;;;4596294;57;21587;-29
2022/07/11 20:58:30;;;;;;;12.57;10.05;;;26.90;45.50;;;;;;4625040;57;21092;-32
2022/07/11 21:03:31;;;;;;;13.13;10.00;;;26.90;45.20;;;;;;4757571;57;21032;-31
2022/07/11 21:08:32;;;;;;;11.75;9.43;;;26.90;45.30;;;;;;4560797;61;21117;-30
2022/07/11 21:13:33;;;;;;;11.50;9.35;;;26.90;45.20;;;;;;4614745;57;21020;-31
2022/07/11 21:18:33;;;;;;;13.90;9.02;;;26.90;45.20;;;;;;4561195;61;21048;-33
2022/07/11 21:23:34;;;;;;;10.57;8.73;;;26.80;45.30;;;;;;4561468;58;21035;-30
2022/07/11 21:28:35;;;;;;;12.35;8.73;;;26.80;45.10;;;;;;4715116;57;21070;-30
2022/07/11 21:33:36;;;;;;;11.98;8.73;;;26.90;45.30;;;;;;4587016;57;21028;-34
2022/07/11 21:38:38;;;;;;;9.82;8.10;;;26.80;45.40;;;;;;4703809;57;21048;-29
2022/07/11 21:43:39;;;;;;;10.65;8.65;;;26.80;45.50;;;;;;4746661;57;21555;-31
2022/07/11 21:48:40;;;;;;;10.13;7.90;;;26.80;45.10;;;;;;4937921;57;21037;-32
2022/07/11 21:53:41;;;;;;;10.18;7.65;;;26.80;45.40;;;;;;5008714;57;21140;-30
2022/07/11 21:58:41;;;;;;;10.77;8.20;;;26.80;45.40;;;;;;4743343;57;21044;-30
2022/07/11 22:03:42;;;;;;;9.82;7.25;;;26.80;45.50;;;;;;4561656;61;21526;-33
2022/07/11 22:08:43;;;;;;;8.73;7.00;;;26.80;45.40;;;;;;4723918;57;21064;-30
2022/07/11 22:13:44;;;;;;;9.15;6.90;;;26.80;45.40;;;;;;4634193;57;21084;-32
2022/07/11 22:18:45;;;;;;;10.40;7.72;;;26.80;45.60;;;;;;4561760;58;21096;-32
2022/07/11 22:23:46;;;;;;;9.18;6.60;;;26.80;45.50;;;;;;4564842;57;21032;-28
2022/07/11 22:28:47;;;;;;;7.95;7.07;;;26.80;45.70;;;;;;4652874;57;21112;-30
2022/07/11 22:33:48;;;;;;;8.18;6.62;;;26.80;45.70;;;;;;4746858;57;21080;-27
2022/07/11 22:38:49;;;;;;;7.20;6.45;;;26.80;45.70;;;;;;4626850;57;21107;-35
2022/07/11 22:43:50;;;;;;;8.23;6.57;;;26.80;45.70;;;;;;4716265;57;21515;-32
2022/07/11 22:48:51;;;;;;;7.05;6.32;;;26.80;45.80;;;;;;4631025;57;21021;-30
2022/07/11 22:53:52;;;;;;;7.55;6.47;;;26.80;45.90;;;;;;4766330;57;21088;-31
2022/07/11 22:58:52;;;;;;;7.45;6.32;;;26.80;45.90;;;;;;4621405;57;21041;-31
2022/07/11 23:03:53;;;;;;;7.55;6.20;;;26.80;45.80;;;;;;4796918;57;21093;-31
2022/07/11 23:08:54;;;;;;;7.90;6.30;;;26.80;46.10;;;;;;4560743;61;21037;-31
2022/07/11 23:13:55;;;;;;;6.85;6.18;;;26.80;45.90;;;;;;4781680;57;21036;-31
2022/07/11 23:18:56;;;;;;;8.52;6.43;;;26.80;46.00;;;;;;4630720;57;21032;-30
2022/07/11 23:23:57;;;;;;;6.95;6.15;;;26.80;46.10;;;;;;4561844;61;21077;-35
2022/07/11 23:28:58;;;;;;;6.57;5.87;;;26.80;46.80;;;;;;4737423;57;21109;-34
2022/07/11 23:33:58;;;;;;;7.70;6.25;;;26.80;46.10;;;;;;4605005;57;21519;-32
2022/07/11 23:38:59;;;;;;;6.90;6.20;;;26.80;46.20;;;;;;4561648;61;21037;-30
2022/07/11 23:44:01;;;;;;;7.35;5.72;;;26.80;46.20;;;;;;4561873;61;21112;-30
2022/07/11 23:49:02;;;;;;;6.78;5.70;;;26.80;46.10;;;;;;4718071;57;21535;-30
2022/07/11 23:54:03;;;;;;;6.53;5.93;;;26.80;46.90;;;;;;4784333;57;21114;-32
2022/07/11 23:59:04;;;;;;;6.40;5.65;;;26.80;46.90;;;;;;4632456;57;21089;-34
